OOCL Tokyo — VRCI9 — position and weather

sailwx.info

Track history (hours):
 
Tides and Currents Weather Stations Pressure Air Temp Water Temp Dewpoint Dewpoint Depression Visibility Wind Speed Wind Dir Waves Ship Positions

OOCL Tokyo

Last reported at 2017-Sep-21 06:00 UTC. Time now 2017-Sep-26 21:42 UTC.
Position N 46°12' W 156°54'.

Length 323 m; draft 10.6 m.

Type: Cargo ship. MMSI: 477607700.

Wind from 180 at 25 knots

Barometer 1028.0 mb
Air temperature 20.0 ° C
Visibility: greater than 5.4 NM
Dewpoint 16.9 ° C

Date/timePositionNaut miles runAvg speedWind from/ knotsBaromVisibWave heightAir tempDewpointWater temp
2017-Sep-21 06:00N 46°12' W 156°54'   180 / 251028.0 5.4 20.016.9
2017-Sep-17 23:24N 33°42' W 124°35'614.3
2017-Sep-17 23:00N 33°41' W 124°28'713.7
2017-Sep-17 22:30N 33°40' W 124°20'714.1
2017-Sep-17 22:01N 33°40' W 124°11'714.2
2017-Sep-17 21:31N 33°40' W 124°03'714.1
2017-Sep-17 21:01N 33°40' W 123°54'714.1
2017-Sep-17 20:30N 33°40' W 123°46'714.2
2017-Sep-17 20:00N 33°40' W 123°37'714.2
2017-Sep-17 19:30N 33°40' W 123°29'713.9
2017-Sep-17 19:00N 33°40' W 123°21'713.7
2017-Sep-17 18:30N 33°40' W 123°12'713.9
2017-Sep-17 18:00N 33°40' W 123°04'713.8
2017-Sep-17 17:30N 33°40' W 122°56'714.0
2017-Sep-17 17:00N 33°40' W 122°47'714.0
2017-Sep-17 16:30N 33°39' W 122°39'714.0
2017-Sep-17 16:00N 33°39' W 122°30'814.2
2017-Sep-17 15:28N 33°39' W 122°21'714.3
2017-Sep-17 15:00N 33°39' W 122°13'1114.7
2017-Sep-17 14:17N 33°39' W 122°01'414.8
2017-Sep-17 14:00N 33°39' W 121°56'714.5
2017-Sep-17 13:30N 33°39' W 121°47'714.7
2017-Sep-17 13:00N 33°39' W 121°38'714.8
2017-Sep-17 12:30N 33°39' W 121°29'814.8
2017-Sep-17 11:59N 33°39' W 121°20'714.9
2017-Sep-17 11:30N 33°39' W 121°11'714.9
2017-Sep-17 11:00N 33°38' W 121°02'815.2
2017-Sep-17 10:30N 33°38' W 120°53'715.0
2017-Sep-17 10:00N 33°38' W 120°44'714.7
2017-Sep-17 09:30N 33°38' W 120°36'815.1
2017-Sep-17 09:00N 33°38' W 120°26'714.9
2017-Sep-17 08:30N 33°38' W 120°18'714.7
2017-Sep-17 08:00N 33°38' W 120°09'714.5
2017-Sep-17 07:30N 33°38' W 119°60'714.8
2017-Sep-17 07:00N 33°38' W 119°51'815.3
2017-Sep-17 06:30N 33°38' W 119°42'815.3
2017-Sep-17 06:00N 33°38' W 119°33'815.1
2017-Sep-17 05:30N 33°38' W 119°24'714.9
2017-Sep-17 05:00N 33°38' W 119°15'714.5
2017-Sep-17 04:29N 33°38' W 119°06'611.8
2017-Sep-17 04:00N 33°38' W 118°59'611.8
2017-Sep-17 03:28N 33°38' W 118°51'511.6
2017-Sep-17 03:00N 33°38' W 118°45'611.8
2017-Sep-17 02:29N 33°38' W 118°37'711.9
2017-Sep-17 01:51N 33°38' W 118°28'511.8
2017-Sep-17 01:27N 33°38' W 118°23'612.0
2017-Sep-17 00:59N 33°38' W 118°16'5 9.9
2017-Sep-17 00:30N 33°41' W 118°12'4 8.2
2017-Sep-17 00:00N 33°45' W 118°13'0 0.2
2017-Sep-16 22:01N 33°45' W 118°13'0 0.0
2017-Sep-16 21:43N 33°45' W 118°13'0 0.0
2017-Sep-16 21:28N 33°45' W 118°13'0 0.0
2017-Sep-16 20:46N 33°45' W 118°13'0 0.0
2017-Sep-16 20:22N 33°45' W 118°13'0 0.0
2017-Sep-16 19:55N 33°45' W 118°13'0 0.0
2017-Sep-16 19:07N 33°45' W 118°13'0 0.0
2017-Sep-16 18:55N 33°45' W 118°13'0 0.0
2017-Sep-16 18:25N 33°45' W 118°13'0 0.0
2017-Sep-16 14:10N 33°45' W 118°13'0 0.0
2017-Sep-16 13:58N 33°45' W 118°13'0 0.0
2017-Sep-16 13:28N 33°45' W 118°13'0 0.0
2017-Sep-16 12:58N 33°45' W 118°13'0 0.0
2017-Sep-16 12:28N 33°45' W 118°13'0 0.0
2017-Sep-16 11:58N 33°45' W 118°13'0 0.0
2017-Sep-16 11:28N 33°45' W 118°13'0 0.0
2017-Sep-16 10:46N 33°45' W 118°13'0 0.0
2017-Sep-16 10:28N 33°45' W 118°13'0 0.0
2017-Sep-16 09:46N 33°45' W 118°13'0 0.0
2017-Sep-16 07:58N 33°45' W 118°13'0 0.0
2017-Sep-16 07:16N 33°45' W 118°13'0 0.0
2017-Sep-16 06:46N 33°45' W 118°13'0 0.0
2017-Sep-16 06:28N 33°45' W 118°13'0 0.0
2017-Sep-16 05:31N 33°45' W 118°13'0 0.0
2017-Sep-16 05:10N 33°45' W 118°13'0 0.0
2017-Sep-16 04:55N 33°45' W 118°13'0 0.0
2017-Sep-16 03:10N 33°45' W 118°13'0 0.0
2017-Sep-16 01:13N 33°45' W 118°13'0 0.0
2017-Sep-16 00:55N 33°45' W 118°13'0 0.0
2017-Sep-16 00:25N 33°45' W 118°13'0 0.0
2017-Sep-15 22:55N 33°45' W 118°13'0 0.0
2017-Sep-15 21:46N 33°45' W 118°13'0 0.0
2017-Sep-15 20:55N 33°45' W 118°13'0 0.0
2017-Sep-15 18:55N 33°45' W 118°13'0 0.0
2017-Sep-15 18:22N 33°45' W 118°13'0 0.0
2017-Sep-15 15:19N 33°45' W 118°13'0 0.0
2017-Sep-15 14:19N 33°45' W 118°13'0 0.0
2017-Sep-15 13:46N 33°45' W 118°13'0 0.0
2017-Sep-15 13:16N 33°45' W 118°13'0 0.0
2017-Sep-15 12:49N 33°45' W 118°13'0 0.0
2017-Sep-15 12:07N 33°45' W 118°13'0 0.0
2017-Sep-15 11:55N 33°45' W 118°13'0 0.0
2017-Sep-15 08:55N 33°45' W 118°13'0 0.0
2017-Sep-15 08:28N 33°45' W 118°13'0 0.0
2017-Sep-15 07:58N 33°45' W 118°13'0 0.0
2017-Sep-15 07:28N 33°45' W 118°13'0 0.0
2017-Sep-15 06:58N 33°45' W 118°13'0 0.0
2017-Sep-15 06:19N 33°45' W 118°13'0 0.0
2017-Sep-15 05:55N 33°45' W 118°13'0 0.0
2017-Sep-15 05:19N 33°45' W 118°13'0 0.0
2017-Sep-15 04:49N 33°45' W 118°13'0 0.0
2017-Sep-15 04:13N 33°45' W 118°13'0 0.0
2017-Sep-15 03:58N 33°45' W 118°13'0 0.0
2017-Sep-15 03:22N 33°45' W 118°13'0 0.0
2017-Sep-15 02:43N 33°45' W 118°13'0 0.0
2017-Sep-15 01:22N 33°45' W 118°13'0 0.0
2017-Sep-15 00:34N 33°45' W 118°13'0 0.0
2017-Sep-15 00:19N 33°45' W 118°13'0 0.0
2017-Sep-14 23:49N 33°45' W 118°13'0 0.0
2017-Sep-14 23:19N 33°45' W 118°13'0 0.0
2017-Sep-14 22:55N 33°45' W 118°13'0 0.0
2017-Sep-14 22:10N 33°45' W 118°13'0 0.0
2017-Sep-14 21:55N 33°45' W 118°13'0 0.0
2017-Sep-14 21:28N 33°45' W 118°13'0 0.0
2017-Sep-14 20:55N 33°45' W 118°13'0 0.0
2017-Sep-14 20:28N 33°45' W 118°13'0 0.0
2017-Sep-14 19:58N 33°45' W 118°13'0 0.0
2017-Sep-14 19:28N 33°45' W 118°13'0 0.0
2017-Sep-14 18:58N 33°45' W 118°13'0 0.0
2017-Sep-14 18:28N 33°45' W 118°13'0 0.0
2017-Sep-14 17:58N 33°45' W 118°13'0 0.0
2017-Sep-14 17:25N 33°45' W 118°13'0 0.0
2017-Sep-14 16:58N 33°45' W 118°13'0 0.0
2017-Sep-14 16:25N 33°45' W 118°13'0 0.0
2017-Sep-14 15:49N 33°45' W 118°13'0 0.0
2017-Sep-14 15:25N 33°45' W 118°13'0 0.0
2017-Sep-14 13:25N 33°45' W 118°13'0 0.3
2017-Sep-14 13:00N 33°45' W 118°13'0 0.8
2017-Sep-14 12:25N 33°46' W 118°13'0 0.0
2017-Sep-14 11:55N 33°46' W 118°13'0 0.0
2017-Sep-14 11:25N 33°46' W 118°13'0 0.0
2017-Sep-14 10:49N 33°46' W 118°13'0 0.0
2017-Sep-14 10:25N 33°46' W 118°13'0 0.0
2017-Sep-14 09:58N 33°46' W 118°13'0 0.0
2017-Sep-14 09:28N 33°46' W 118°13'0 0.0
2017-Sep-14 08:52N 33°46' W 118°13'0 0.0
2017-Sep-14 08:28N 33°46' W 118°13'0 0.0
2017-Sep-14 07:58N 33°46' W 118°13'0 0.0
2017-Sep-14 07:25N 33°46' W 118°13'0 0.0
2017-Sep-14 06:58N 33°46' W 118°13'0 0.0
2017-Sep-14 06:25N 33°46' W 118°13'0 0.0
2017-Sep-14 05:58N 33°46' W 118°13'0 0.0
2017-Sep-14 05:28N 33°46' W 118°13'0 0.0
2017-Sep-14 04:55N 33°46' W 118°13'0 0.0
2017-Sep-14 04:28N 33°46' W 118°13'0 0.0
2017-Sep-14 03:52N 33°46' W 118°13'0 0.0
2017-Sep-14 03:22N 33°46' W 118°13'0 0.0
2017-Sep-14 02:58N 33°46' W 118°13'0 0.0
2017-Sep-14 02:28N 33°46' W 118°13'0 0.0
2017-Sep-14 01:58N 33°46' W 118°13'0 0.0
2017-Sep-14 01:28N 33°46' W 118°13'0 0.0
2017-Sep-14 00:58N 33°46' W 118°13'0 0.0
2017-Sep-14 00:19N 33°46' W 118°13'0 0.0
2017-Sep-13 23:58N 33°46' W 118°13'0 0.0
2017-Sep-13 23:25N 33°46' W 118°13'0 0.0
2017-Sep-13 22:58N 33°46' W 118°13'0 0.0
2017-Sep-13 22:25N 33°46' W 118°13'0 0.0
2017-Sep-13 21:58N 33°46' W 118°13'0 0.0
2017-Sep-13 21:28N 33°46' W 118°13'0 0.0
2017-Sep-13 20:58N 33°46' W 118°13'0 0.0
2017-Sep-13 20:28N 33°46' W 118°13'0 0.0
2017-Sep-13 19:58N 33°46' W 118°13'0 0.0
2017-Sep-13 19:28N 33°46' W 118°13'0 0.0
2017-Sep-13 18:52N 33°46' W 118°13'0 0.0
2017-Sep-13 18:28N 33°46' W 118°13'0 0.0
2017-Sep-13 17:46N 33°46' W 118°13'0 0.0
2017-Sep-13 17:28N 33°46' W 118°13'0 0.0
2017-Sep-13 16:52N 33°46' W 118°13'0 0.0
2017-Sep-13 16:28N 33°46' W 118°13'0 0.0
2017-Sep-13 15:58N 33°46' W 118°13'0 0.0
2017-Sep-13 15:28N 33°46' W 118°13'0 0.0
2017-Sep-13 14:55N 33°46' W 118°13'0 0.0
2017-Sep-13 14:28N 33°46' W 118°13'0 0.0
2017-Sep-13 13:58N 33°46' W 118°13'0 0.0
2017-Sep-13 13:25N 33°46' W 118°13'0 0.0
2017-Sep-13 12:52N 33°46' W 118°13'0 0.8
2017-Sep-13 12:30N 33°45' W 118°13'0 0.3
2017-Sep-13 12:01N 33°45' W 118°13'0 0.0
2017-Sep-13 11:27N 33°45' W 118°13'0 0.0
2017-Sep-13 11:00N 33°45' W 118°13'0 0.0
2017-Sep-13 10:30N 33°45' W 118°13'0 0.0
2017-Sep-13 10:00N 33°45' W 118°13'0 0.0
2017-Sep-13 09:27N 33°45' W 118°13'0 0.0
2017-Sep-13 09:00N 33°45' W 118°13'0 0.0
2017-Sep-13 08:30N 33°45' W 118°13'0 0.0
2017-Sep-13 08:00N 33°45' W 118°13'0 0.0
2017-Sep-13 07:30N 33°45' W 118°13'0 0.0
2017-Sep-13 06:57N 33°45' W 118°13'0 0.0
2017-Sep-13 06:30N 33°45' W 118°13'0 0.0
2017-Sep-13 05:51N 33°45' W 118°13'0 0.0
2017-Sep-13 05:24N 33°45' W 118°13'0 0.0
2017-Sep-13 04:57N 33°45' W 118°13'0 0.0
2017-Sep-13 04:30N 33°45' W 118°13'0 0.0
2017-Sep-13 04:00N 33°45' W 118°13'0 0.0
2017-Sep-13 03:30N 33°45' W 118°13'0 0.0
2017-Sep-13 03:00N 33°45' W 118°13'0 0.0
2017-Sep-13 02:30N 33°45' W 118°13'0 0.0
2017-Sep-13 02:00N 33°45' W 118°13'0 0.0
2017-Sep-13 01:30N 33°45' W 118°13'0 0.0
2017-Sep-13 01:00N 33°45' W 118°13'0 0.0
2017-Sep-13 00:27N 33°45' W 118°13'0 0.0
2017-Sep-13 00:00N 33°45' W 118°13'0 0.0
2017-Sep-12 23:30N 33°45' W 118°13'0 0.0
2017-Sep-12 23:00N 33°45' W 118°13'0 0.0
2017-Sep-12 22:30N 33°45' W 118°13'0 0.0
2017-Sep-12 22:00N 33°45' W 118°13'0 0.9
2017-Sep-12 21:31N 33°45' W 118°13'4 8.0
2017-Sep-12 21:00N 33°41' W 118°11'5 9.6
2017-Sep-12 20:30N 33°38' W 118°14'5 9.7
2017-Sep-12 20:00N 33°36' W 118°20'510.9
2017-Sep-12 19:30N 33°36' W 118°26'510.9
2017-Sep-12 19:00N 33°36' W 118°33'611.3
2017-Sep-12 18:29N 33°36' W 118°40'611.4
2017-Sep-12 18:00N 33°37' W 118°46'611.5
2017-Sep-12 17:30N 33°37' W 118°53'4 8.5
2017-Sep-12 17:00N 33°37' W 118°58'611.2
2017-Sep-12 16:30N 33°37' W 119°05'713.4
2017-Sep-12 16:00N 33°37' W 119°13'713.9
2017-Sep-12 15:29N 33°38' W 119°22'713.8
2017-Sep-12 15:00N 33°39' W 119°30'713.5
2017-Sep-12 14:30N 33°39' W 119°38'713.2
2017-Sep-12 14:00N 33°40' W 119°46'713.1
2017-Sep-12 13:29N 33°41' W 119°54'612.9
2017-Sep-12 13:00N 33°41' W 120°01'713.0
2017-Sep-12 12:30N 33°42' W 120°09'713.4
2017-Sep-12 12:00N 33°42' W 120°17'713.5
2017-Sep-12 11:29N 33°42' W 120°26'613.4
2017-Sep-12 11:00N 33°43' W 120°33'713.3
2017-Sep-12 10:29N 33°43' W 120°42'613.3
2017-Sep-12 10:00N 33°43' W 120°49'713.1
2017-Sep-12 09:30N 33°44' W 120°57'713.0
2017-Sep-12 09:00N 33°44' W 121°05'613.0
2017-Sep-12 08:30N 33°45' W 121°13'713.1
2017-Sep-12 08:00N 33°46' W 121°21'713.3
2017-Sep-12 07:30N 33°46' W 121°29'713.7
2017-Sep-12 07:00N 33°46' W 121°37'713.5
2017-Sep-12 06:30N 33°47' W 121°45'813.7
2017-Sep-12 05:56N 33°47' W 121°54'613.7
2017-Sep-12 05:30N 33°48' W 122°01'713.6
2017-Sep-12 05:00N 33°48' W 122°10'813.8
2017-Sep-12 04:24N 33°48' W 122°20'513.7
2017-Sep-12 04:00N 33°49' W 122°26'713.8
2017-Sep-12 03:30N 33°49' W 122°34'713.9
2017-Sep-12 03:00N 33°49' W 122°43'714.3
2017-Sep-12 02:30N 33°50' W 122°51'814.0
2017-Sep-12 01:56N 33°50' W 123°01'613.6
2017-Sep-12 01:30N 33°51' W 123°08'3714.1
2017-Sep-11 22:53N 33°53' W 123°52'32119.0
2017-Sep-11 06:00N 35°42' W 130°00'   020 / 201021.827.0 20.016.920.3
Track history (hours):
 
Tides and Currents Weather Stations Pressure Air Temp Water Temp Dewpoint Dewpoint Depression Visibility Wind Speed Wind Dir Waves Ship Positions

OOCL Tokyo

Last reported at 2017-Sep-21 06:00 UTC. Time now 2017-Sep-26 21:42 UTC.
Position N 46°12' W 156°54'.

Length 323 m; draft 10.6 m.

Type: Cargo ship. MMSI: 477607700.

Wind from 180 at 25 knots

Barometer 1028.0 mb
Air temperature 20.0 ° C
Visibility: greater than 5.4 NM
Dewpoint 16.9 ° C

Date/timePositionNaut miles runAvg speedWind from/ knotsBaromVisibWave heightAir tempDewpointWater temp
2017-Sep-21 06:00N 46°12' W 156°54'   180 / 251028.0 5.4 20.016.9
2017-Sep-17 23:24N 33°42' W 124°35'614.3
2017-Sep-17 23:00N 33°41' W 124°28'713.7
2017-Sep-17 22:30N 33°40' W 124°20'714.1
2017-Sep-17 22:01N 33°40' W 124°11'714.2
2017-Sep-17 21:31N 33°40' W 124°03'714.1
2017-Sep-17 21:01N 33°40' W 123°54'714.1
2017-Sep-17 20:30N 33°40' W 123°46'714.2
2017-Sep-17 20:00N 33°40' W 123°37'714.2
2017-Sep-17 19:30N 33°40' W 123°29'713.9
2017-Sep-17 19:00N 33°40' W 123°21'713.7
2017-Sep-17 18:30N 33°40' W 123°12'713.9
2017-Sep-17 18:00N 33°40' W 123°04'713.8
2017-Sep-17 17:30N 33°40' W 122°56'714.0
2017-Sep-17 17:00N 33°40' W 122°47'714.0
2017-Sep-17 16:30N 33°39' W 122°39'714.0
2017-Sep-17 16:00N 33°39' W 122°30'814.2
2017-Sep-17 15:28N 33°39' W 122°21'714.3
2017-Sep-17 15:00N 33°39' W 122°13'1114.7
2017-Sep-17 14:17N 33°39' W 122°01'414.8
2017-Sep-17 14:00N 33°39' W 121°56'714.5
2017-Sep-17 13:30N 33°39' W 121°47'714.7
2017-Sep-17 13:00N 33°39' W 121°38'714.8
2017-Sep-17 12:30N 33°39' W 121°29'814.8
2017-Sep-17 11:59N 33°39' W 121°20'714.9
2017-Sep-17 11:30N 33°39' W 121°11'714.9
2017-Sep-17 11:00N 33°38' W 121°02'815.2
2017-Sep-17 10:30N 33°38' W 120°53'715.0
2017-Sep-17 10:00N 33°38' W 120°44'714.7
2017-Sep-17 09:30N 33°38' W 120°36'815.1
2017-Sep-17 09:00N 33°38' W 120°26'714.9
2017-Sep-17 08:30N 33°38' W 120°18'714.7
2017-Sep-17 08:00N 33°38' W 120°09'714.5
2017-Sep-17 07:30N 33°38' W 119°60'714.8
2017-Sep-17 07:00N 33°38' W 119°51'815.3
2017-Sep-17 06:30N 33°38' W 119°42'815.3
2017-Sep-17 06:00N 33°38' W 119°33'815.1
2017-Sep-17 05:30N 33°38' W 119°24'714.9
2017-Sep-17 05:00N 33°38' W 119°15'714.5
2017-Sep-17 04:29N 33°38' W 119°06'611.8
2017-Sep-17 04:00N 33°38' W 118°59'611.8
2017-Sep-17 03:28N 33°38' W 118°51'511.6
2017-Sep-17 03:00N 33°38' W 118°45'611.8
2017-Sep-17 02:29N 33°38' W 118°37'711.9
2017-Sep-17 01:51N 33°38' W 118°28'511.8
2017-Sep-17 01:27N 33°38' W 118°23'612.0
2017-Sep-17 00:59N 33°38' W 118°16'5 9.9
2017-Sep-17 00:30N 33°41' W 118°12'4 8.2
2017-Sep-17 00:00N 33°45' W 118°13'0 0.2
2017-Sep-16 22:01N 33°45' W 118°13'0 0.0
2017-Sep-16 21:43N 33°45' W 118°13'0 0.0
2017-Sep-16 21:28N 33°45' W 118°13'0 0.0
2017-Sep-16 20:46N 33°45' W 118°13'0 0.0
2017-Sep-16 20:22N 33°45' W 118°13'0 0.0
2017-Sep-16 19:55N 33°45' W 118°13'0 0.0
2017-Sep-16 19:07N 33°45' W 118°13'0 0.0
2017-Sep-16 18:55N 33°45' W 118°13'0 0.0
2017-Sep-16 18:25N 33°45' W 118°13'0 0.0
2017-Sep-16 14:10N 33°45' W 118°13'0 0.0
2017-Sep-16 13:58N 33°45' W 118°13'0 0.0
2017-Sep-16 13:28N 33°45' W 118°13'0 0.0
2017-Sep-16 12:58N 33°45' W 118°13'0 0.0
2017-Sep-16 12:28N 33°45' W 118°13'0 0.0
2017-Sep-16 11:58N 33°45' W 118°13'0 0.0
2017-Sep-16 11:28N 33°45' W 118°13'0 0.0
2017-Sep-16 10:46N 33°45' W 118°13'0 0.0
2017-Sep-16 10:28N 33°45' W 118°13'0 0.0
2017-Sep-16 09:46N 33°45' W 118°13'0 0.0
2017-Sep-16 07:58N 33°45' W 118°13'0 0.0
2017-Sep-16 07:16N 33°45' W 118°13'0 0.0
2017-Sep-16 06:46N 33°45' W 118°13'0 0.0
2017-Sep-16 06:28N 33°45' W 118°13'0 0.0
2017-Sep-16 05:31N 33°45' W 118°13'0 0.0
2017-Sep-16 05:10N 33°45' W 118°13'0 0.0
2017-Sep-16 04:55N 33°45' W 118°13'0 0.0
2017-Sep-16 03:10N 33°45' W 118°13'0 0.0
2017-Sep-16 01:13N 33°45' W 118°13'0 0.0
2017-Sep-16 00:55N 33°45' W 118°13'0 0.0
2017-Sep-16 00:25N 33°45' W 118°13'0 0.0
2017-Sep-15 22:55N 33°45' W 118°13'0 0.0
2017-Sep-15 21:46N 33°45' W 118°13'0 0.0
2017-Sep-15 20:55N 33°45' W 118°13'0 0.0
2017-Sep-15 18:55N 33°45' W 118°13'0 0.0
2017-Sep-15 18:22N 33°45' W 118°13'0 0.0
2017-Sep-15 15:19N 33°45' W 118°13'0 0.0
2017-Sep-15 14:19N 33°45' W 118°13'0 0.0
2017-Sep-15 13:46N 33°45' W 118°13'0 0.0
2017-Sep-15 13:16N 33°45' W 118°13'0 0.0
2017-Sep-15 12:49N 33°45' W 118°13'0 0.0
2017-Sep-15 12:07N 33°45' W 118°13'0 0.0
2017-Sep-15 11:55N 33°45' W 118°13'0 0.0
2017-Sep-15 08:55N 33°45' W 118°13'0 0.0
2017-Sep-15 08:28N 33°45' W 118°13'0 0.0
2017-Sep-15 07:58N 33°45' W 118°13'0 0.0
2017-Sep-15 07:28N 33°45' W 118°13'0 0.0
2017-Sep-15 06:58N 33°45' W 118°13'0 0.0
2017-Sep-15 06:19N 33°45' W 118°13'0 0.0
2017-Sep-15 05:55N 33°45' W 118°13'0 0.0
2017-Sep-15 05:19N 33°45' W 118°13'0 0.0
2017-Sep-15 04:49N 33°45' W 118°13'0 0.0
2017-Sep-15 04:13N 33°45' W 118°13'0 0.0
2017-Sep-15 03:58N 33°45' W 118°13'0 0.0
2017-Sep-15 03:22N 33°45' W 118°13'0 0.0
2017-Sep-15 02:43N 33°45' W 118°13'0 0.0
2017-Sep-15 01:22N 33°45' W 118°13'0 0.0
2017-Sep-15 00:34N 33°45' W 118°13'0 0.0
2017-Sep-15 00:19N 33°45' W 118°13'0 0.0
2017-Sep-14 23:49N 33°45' W 118°13'0 0.0
2017-Sep-14 23:19N 33°45' W 118°13'0 0.0
2017-Sep-14 22:55N 33°45' W 118°13'0 0.0
2017-Sep-14 22:10N 33°45' W 118°13'0 0.0
2017-Sep-14 21:55N 33°45' W 118°13'0 0.0
2017-Sep-14 21:28N 33°45' W 118°13'0 0.0
2017-Sep-14 20:55N 33°45' W 118°13'0 0.0
2017-Sep-14 20:28N 33°45' W 118°13'0 0.0
2017-Sep-14 19:58N 33°45' W 118°13'0 0.0
2017-Sep-14 19:28N 33°45' W 118°13'0 0.0
2017-Sep-14 18:58N 33°45' W 118°13'0 0.0
2017-Sep-14 18:28N 33°45' W 118°13'0 0.0
2017-Sep-14 17:58N 33°45' W 118°13'0 0.0
2017-Sep-14 17:25N 33°45' W 118°13'0 0.0
2017-Sep-14 16:58N 33°45' W 118°13'0 0.0
2017-Sep-14 16:25N 33°45' W 118°13'0 0.0
2017-Sep-14 15:49N 33°45' W 118°13'0 0.0
2017-Sep-14 15:25N 33°45' W 118°13'0 0.0
2017-Sep-14 13:25N 33°45' W 118°13'0 0.3
2017-Sep-14 13:00N 33°45' W 118°13'0 0.8
2017-Sep-14 12:25N 33°46' W 118°13'0 0.0
2017-Sep-14 11:55N 33°46' W 118°13'0 0.0
2017-Sep-14 11:25N 33°46' W 118°13'0 0.0
2017-Sep-14 10:49N 33°46' W 118°13'0 0.0
2017-Sep-14 10:25N 33°46' W 118°13'0 0.0
2017-Sep-14 09:58N 33°46' W 118°13'0 0.0
2017-Sep-14 09:28N 33°46' W 118°13'0 0.0
2017-Sep-14 08:52N 33°46' W 118°13'0 0.0
2017-Sep-14 08:28N 33°46' W 118°13'0 0.0
2017-Sep-14 07:58N 33°46' W 118°13'0 0.0
2017-Sep-14 07:25N 33°46' W 118°13'0 0.0
2017-Sep-14 06:58N 33°46' W 118°13'0 0.0
2017-Sep-14 06:25N 33°46' W 118°13'0 0.0
2017-Sep-14 05:58N 33°46' W 118°13'0 0.0
2017-Sep-14 05:28N 33°46' W 118°13'0 0.0
2017-Sep-14 04:55N 33°46' W 118°13'0 0.0
2017-Sep-14 04:28N 33°46' W 118°13'0 0.0
2017-Sep-14 03:52N 33°46' W 118°13'0 0.0
2017-Sep-14 03:22N 33°46' W 118°13'0 0.0
2017-Sep-14 02:58N 33°46' W 118°13'0 0.0
2017-Sep-14 02:28N 33°46' W 118°13'0 0.0
2017-Sep-14 01:58N 33°46' W 118°13'0 0.0
2017-Sep-14 01:28N 33°46' W 118°13'0 0.0
2017-Sep-14 00:58N 33°46' W 118°13'0 0.0
2017-Sep-14 00:19N 33°46' W 118°13'0 0.0
2017-Sep-13 23:58N 33°46' W 118°13'0 0.0
2017-Sep-13 23:25N 33°46' W 118°13'0 0.0
2017-Sep-13 22:58N 33°46' W 118°13'0 0.0
2017-Sep-13 22:25N 33°46' W 118°13'0 0.0
2017-Sep-13 21:58N 33°46' W 118°13'0 0.0
2017-Sep-13 21:28N 33°46' W 118°13'0 0.0
2017-Sep-13 20:58N 33°46' W 118°13'0 0.0
2017-Sep-13 20:28N 33°46' W 118°13'0 0.0
2017-Sep-13 19:58N 33°46' W 118°13'0 0.0
2017-Sep-13 19:28N 33°46' W 118°13'0 0.0
2017-Sep-13 18:52N 33°46' W 118°13'0 0.0
2017-Sep-13 18:28N 33°46' W 118°13'0 0.0
2017-Sep-13 17:46N 33°46' W 118°13'0 0.0
2017-Sep-13 17:28N 33°46' W 118°13'0 0.0
2017-Sep-13 16:52N 33°46' W 118°13'0 0.0
2017-Sep-13 16:28N 33°46' W 118°13'0 0.0
2017-Sep-13 15:58N 33°46' W 118°13'0 0.0
2017-Sep-13 15:28N 33°46' W 118°13'0 0.0
2017-Sep-13 14:55N 33°46' W 118°13'0 0.0
2017-Sep-13 14:28N 33°46' W 118°13'0 0.0
2017-Sep-13 13:58N 33°46' W 118°13'0 0.0
2017-Sep-13 13:25N 33°46' W 118°13'0 0.0
2017-Sep-13 12:52N 33°46' W 118°13'0 0.8
2017-Sep-13 12:30N 33°45' W 118°13'0 0.3
2017-Sep-13 12:01N 33°45' W 118°13'0 0.0
2017-Sep-13 11:27N 33°45' W 118°13'0 0.0
2017-Sep-13 11:00N 33°45' W 118°13'0 0.0
2017-Sep-13 10:30N 33°45' W 118°13'0 0.0
2017-Sep-13 10:00N 33°45' W 118°13'0 0.0
2017-Sep-13 09:27N 33°45' W 118°13'0 0.0
2017-Sep-13 09:00N 33°45' W 118°13'0 0.0
2017-Sep-13 08:30N 33°45' W 118°13'0 0.0
2017-Sep-13 08:00N 33°45' W 118°13'0 0.0
2017-Sep-13 07:30N 33°45' W 118°13'0 0.0
2017-Sep-13 06:57N 33°45' W 118°13'0 0.0
2017-Sep-13 06:30N 33°45' W 118°13'0 0.0
2017-Sep-13 05:51N 33°45' W 118°13'0 0.0
2017-Sep-13 05:24N 33°45' W 118°13'0 0.0
2017-Sep-13 04:57N 33°45' W 118°13'0 0.0
2017-Sep-13 04:30N 33°45' W 118°13'0 0.0
2017-Sep-13 04:00N 33°45' W 118°13'0 0.0
2017-Sep-13 03:30N 33°45' W 118°13'0 0.0
2017-Sep-13 03:00N 33°45' W 118°13'0 0.0
2017-Sep-13 02:30N 33°45' W 118°13'0 0.0
2017-Sep-13 02:00N 33°45' W 118°13'0 0.0
2017-Sep-13 01:30N 33°45' W 118°13'0 0.0
2017-Sep-13 01:00N 33°45' W 118°13'0 0.0
2017-Sep-13 00:27N 33°45' W 118°13'0 0.0
2017-Sep-13 00:00N 33°45' W 118°13'0 0.0
2017-Sep-12 23:30N 33°45' W 118°13'0 0.0
2017-Sep-12 23:00N 33°45' W 118°13'0 0.0
2017-Sep-12 22:30N 33°45' W 118°13'0 0.0
2017-Sep-12 22:00N 33°45' W 118°13'0 0.9
2017-Sep-12 21:31N 33°45' W 118°13'4 8.0
2017-Sep-12 21:00N 33°41' W 118°11'5 9.6
2017-Sep-12 20:30N 33°38' W 118°14'5 9.7
2017-Sep-12 20:00N 33°36' W 118°20'510.9
2017-Sep-12 19:30N 33°36' W 118°26'510.9
2017-Sep-12 19:00N 33°36' W 118°33'611.3
2017-Sep-12 18:29N 33°36' W 118°40'611.4
2017-Sep-12 18:00N 33°37' W 118°46'611.5
2017-Sep-12 17:30N 33°37' W 118°53'4 8.5
2017-Sep-12 17:00N 33°37' W 118°58'611.2
2017-Sep-12 16:30N 33°37' W 119°05'713.4
2017-Sep-12 16:00N 33°37' W 119°13'713.9
2017-Sep-12 15:29N 33°38' W 119°22'713.8
2017-Sep-12 15:00N 33°39' W 119°30'713.5
2017-Sep-12 14:30N 33°39' W 119°38'713.2
2017-Sep-12 14:00N 33°40' W 119°46'713.1
2017-Sep-12 13:29N 33°41' W 119°54'612.9
2017-Sep-12 13:00N 33°41' W 120°01'713.0
2017-Sep-12 12:30N 33°42' W 120°09'713.4
2017-Sep-12 12:00N 33°42' W 120°17'713.5
2017-Sep-12 11:29N 33°42' W 120°26'613.4
2017-Sep-12 11:00N 33°43' W 120°33'713.3
2017-Sep-12 10:29N 33°43' W 120°42'613.3
2017-Sep-12 10:00N 33°43' W 120°49'713.1
2017-Sep-12 09:30N 33°44' W 120°57'713.0
2017-Sep-12 09:00N 33°44' W 121°05'613.0
2017-Sep-12 08:30N 33°45' W 121°13'713.1
2017-Sep-12 08:00N 33°46' W 121°21'713.3
2017-Sep-12 07:30N 33°46' W 121°29'713.7
2017-Sep-12 07:00N 33°46' W 121°37'713.5
2017-Sep-12 06:30N 33°47' W 121°45'813.7
2017-Sep-12 05:56N 33°47' W 121°54'613.7
2017-Sep-12 05:30N 33°48' W 122°01'713.6
2017-Sep-12 05:00N 33°48' W 122°10'813.8
2017-Sep-12 04:24N 33°48' W 122°20'513.7
2017-Sep-12 04:00N 33°49' W 122°26'713.8
2017-Sep-12 03:30N 33°49' W 122°34'713.9
2017-Sep-12 03:00N 33°49' W 122°43'714.3
2017-Sep-12 02:30N 33°50' W 122°51'814.0
2017-Sep-12 01:56N 33°50' W 123°01'613.6
2017-Sep-12 01:30N 33°51' W 123°08'3714.1
2017-Sep-11 22:53N 33°53' W 123°52'32119.0
2017-Sep-11 06:00N 35°42' W 130°00'   020 / 201021.827.0 20.016.920.3

Dump ship's entire track history